Time,TemperatureF,DewpointF,PressureIn,WindDirection,WindDirectionDegrees,WindSpeedMPH,WindSpeedGustMPH,Humidity,HourlyPrecipIn,Conditions,Clouds,dailyrainin,SoftwareType,DateUTC
2013-07-12 00:09:00,46.4,41.8,29.84,NW,315,0.0,-999.0,84,-99.99,,,0.00,Acu-Link.com,2013-07-12 07:09:00,
2013-07-12 00:24:00,46.4,42.4,29.84,NE,45,2.0,-999.0,86,-99.99,,,0.00,Acu-Link.com,2013-07-12 07:24:00,
2013-07-12 00:39:00,46.4,43.0,29.84,NE,45,0.0,-999.0,88,-99.99,,,0.00,Acu-Link.com,2013-07-12 07:39:00,
2013-07-12 00:54:00,46.4,43.0,29.85,NNE,22,0.0,-999.0,88,-99.99,,,0.00,Acu-Link.com,2013-07-12 07:54:00,
2013-07-12 01:11:00,46.4,43.0,29.85,NE,45,0.0,-999.0,88,-99.99,,,0.00,Acu-Link.com,2013-07-12 08:11:00,
2013-07-12 01:26:00,44.6,41.3,29.85,NNE,22,0.0,-999.0,88,-99.99,,,0.00,Acu-Link.com,2013-07-12 08:26:00,
2013-07-12 01:41:00,44.6,41.3,29.86,NE,45,1.1,-999.0,88,-99.99,,,0.00,Acu-Link.com,2013-07-12 08:41:00,
2013-07-12 01:56:00,44.6,41.3,29.86,South,180,0.0,-999.0,88,-99.99,,,0.00,Acu-Link.com,2013-07-12 08:56:00,
2013-07-12 02:12:00,44.6,41.6,29.86,ENE,67,0.0,-999.0,89,-99.99,,,0.00,Acu-Link.com,2013-07-12 09:12:00,
2013-07-12 02:27:00,44.6,41.9,29.86,NE,45,0.0,-999.0,90,-99.99,,,0.00,Acu-Link.com,2013-07-12 09:27:00,
2013-07-12 02:42:00,44.6,41.6,29.87,NE,45,0.0,-999.0,89,-99.99,,,0.00,Acu-Link.com,2013-07-12 09:42:00,
2013-07-12 02:57:00,42.8,40.1,29.87,NE,45,0.0,-999.0,90,-99.99,,,0.00,Acu-Link.com,2013-07-12 09:57:00,
2013-07-12 03:12:00,42.8,40.1,29.87,NE,45,0.0,-999.0,90,-99.99,,,0.00,Acu-Link.com,2013-07-12 10:12:00,
2013-07-12 03:27:00,42.8,40.1,29.87,NE,45,0.0,-999.0,90,-99.99,,,0.00,Acu-Link.com,2013-07-12 10:27:00,
2013-07-12 03:42:00,42.8,40.1,29.87,NE,45,0.0,-999.0,90,-99.99,,,0.00,Acu-Link.com,2013-07-12 10:42:00,
2013-07-12 03:57:00,41.0,38.3,29.88,NE,45,0.0,-999.0,90,-99.99,,,0.00,Acu-Link.com,2013-07-12 10:57:00,
2013-07-12 04:12:00,41.0,40.5,29.88,NE,45,0.0,-999.0,98,-99.99,,,0.00,Acu-Link.com,2013-07-12 11:12:00,
2013-07-12 04:27:00,41.0,40.5,29.88,NE,45,0.0,-999.0,98,-99.99,,,0.00,Acu-Link.com,2013-07-12 11:27:00,
2013-07-12 04:42:00,41.0,40.5,29.89,NE,45,0.0,-999.0,98,-99.99,,,0.00,Acu-Link.com,2013-07-12 11:42:00,
2013-07-12 04:58:00,41.0,40.5,29.89,NE,45,0.0,-999.0,98,-99.99,,,0.00,Acu-Link.com,2013-07-12 11:58:00,
2013-07-12 05:13:00,41.0,40.5,29.88,NE,45,0.0,-999.0,98,-99.99,,,0.00,Acu-Link.com,2013-07-12 12:13:00,
2013-07-12 05:28:00,41.0,40.5,29.89,NE,45,0.0,-999.0,98,-99.99,,,0.00,Acu-Link.com,2013-07-12 12:28:00,
2013-07-12 05:43:00,42.8,42.3,29.89,NE,45,0.0,-999.0,98,-99.99,,,0.00,Acu-Link.com,2013-07-12 12:43:00,
2013-07-12 05:58:00,41.0,40.5,29.90,SSW,202,0.0,-999.0,98,-99.99,,,0.00,Acu-Link.com,2013-07-12 12:58:00,
2013-07-12 06:13:00,41.0,40.5,29.90,South,180,0.0,-999.0,98,-99.99,,,0.00,Acu-Link.com,2013-07-12 13:13:00,
2013-07-12 06:28:00,41.0,40.5,29.90,SSW,202,1.1,-999.0,98,-99.99,,,0.00,Acu-Link.com,2013-07-12 13:28:00,
2013-07-12 06:43:00,41.0,40.5,29.90,ESE,112,0.0,-999.0,98,-99.99,,,0.00,Acu-Link.com,2013-07-12 13:43:00,
2013-07-12 06:59:00,42.8,42.3,29.90,ESE,112,0.0,-999.0,98,-99.99,,,0.00,Acu-Link.com,2013-07-12 13:59:00,
2013-07-12 07:14:00,42.8,42.3,29.91,West,270,0.0,-999.0,98,-99.99,,,0.00,Acu-Link.com,2013-07-12 14:14:00,
2013-07-12 07:29:00,44.6,41.9,29.90,South,180,0.0,-999.0,90,-99.99,,,0.00,Acu-Link.com,2013-07-12 14:29:00,
2013-07-12 07:44:00,44.6,41.6,29.90,SSE,157,0.0,-999.0,89,-99.99,,,0.00,Acu-Link.com,2013-07-12 14:44:00,
2013-07-12 08:00:00,46.4,41.5,29.91,SW,225,0.0,-999.0,83,-99.99,,,0.00,Acu-Link.com,2013-07-12 15:00:00,
2013-07-12 08:15:00,46.4,40.6,29.91,North,0,1.1,-999.0,80,-99.99,,,0.00,Acu-Link.com,2013-07-12 15:15:00,
2013-07-12 08:30:00,46.4,39.3,29.91,West,270,0.0,-999.0,76,-99.99,,,0.00,Acu-Link.com,2013-07-12 15:30:00,
2013-07-12 08:45:00,48.2,39.2,29.91,West,270,6.7,-999.0,71,-99.99,,,0.00,Acu-Link.com,2013-07-12 15:45:00,
2013-07-12 09:00:00,50.0,39.1,29.91,West,270,2.0,-999.0,66,-99.99,,,0.00,Acu-Link.com,2013-07-12 16:00:00,
2013-07-12 09:15:00,51.8,39.6,29.91,NE,45,2.7,-999.0,63,-99.99,,,0.00,Acu-Link.com,2013-07-12 16:15:00,
2013-07-12 09:31:00,51.8,37.9,29.91,South,180,2.7,-999.0,59,-99.99,,,0.00,Acu-Link.com,2013-07-12 16:31:00,
2013-07-12 09:46:00,53.6,38.7,29.91,NNE,22,2.0,-999.0,57,-99.99,,,0.00,Acu-Link.com,2013-07-12 16:46:00,
2013-07-12 10:01:00,55.4,39.5,29.91,SSW,202,2.7,-999.0,55,-99.99,,,0.00,Acu-Link.com,2013-07-12 17:01:00,
2013-07-12 10:16:00,55.4,39.5,29.91,North,0,2.0,-999.0,55,-99.99,,,0.00,Acu-Link.com,2013-07-12 17:16:00,
2013-07-12 10:46:00,55.4,39.5,29.90,NNE,22,0.0,-999.0,55,-99.99,,,0.00,Acu-Link.com,2013-07-12 17:46:00,
2013-07-12 11:01:00,55.4,38.1,29.90,South,180,4.0,-999.0,52,-99.99,,,0.00,Acu-Link.com,2013-07-12 18:01:00,
2013-07-12 11:16:00,55.4,38.6,29.90,WSW,247,0.0,-999.0,53,-99.99,,,0.00,Acu-Link.com,2013-07-12 18:16:00,
2013-07-12 11:31:00,60.8,41.5,29.90,North,0,2.7,-999.0,49,-99.99,,,0.00,Acu-Link.com,2013-07-12 18:31:00,
2013-07-12 11:46:00,59.0,39.9,29.90,SSE,157,1.6,-999.0,49,-99.99,,,0.00,Acu-Link.com,2013-07-12 18:46:00,
2013-07-12 12:01:00,57.2,39.7,29.90,West,270,1.6,-999.0,52,-99.99,,,0.00,Acu-Link.com,2013-07-12 19:01:00,
2013-07-12 12:17:00,60.8,41.0,29.90,ESE,112,3.1,-999.0,48,-99.99,,,0.00,Acu-Link.com,2013-07-12 19:17:00,
2013-07-12 12:47:00,59.0,39.9,29.90,West,270,1.6,-999.0,49,-99.99,,,0.00,Acu-Link.com,2013-07-12 19:47:00,
2013-07-12 13:02:00,62.6,41.5,29.90,West,270,5.1,-999.0,46,-99.99,,,0.00,Acu-Link.com,2013-07-12 20:02:00,
2013-07-12 13:17:00,64.4,42.0,29.89,ENE,67,2.0,-999.0,44,-99.99,,,0.00,Acu-Link.com,2013-07-12 20:17:00,
2013-07-12 13:32:00,60.8,39.9,29.89,South,180,2.7,-999.0,46,-99.99,,,0.00,Acu-Link.com,2013-07-12 20:32:00,
2013-07-12 13:47:00,60.8,37.6,29.89,ESE,112,3.6,-999.0,42,-99.99,,,0.00,Acu-Link.com,2013-07-12 20:47:00,
2013-07-12 14:02:00,62.6,39.2,29.89,South,180,2.0,-999.0,42,-99.99,,,0.00,Acu-Link.com,2013-07-12 21:02:00,
2013-07-12 14:17:00,64.4,40.2,29.89,ESE,112,2.0,-999.0,41,-99.99,,,0.00,Acu-Link.com,2013-07-12 21:17:00,
2013-07-12 14:33:00,60.8,36.3,29.89,West,270,2.7,-999.0,40,-99.99,,,0.00,Acu-Link.com,2013-07-12 21:33:00,
2013-07-12 14:48:00,64.4,40.8,29.89,NE,45,3.1,-999.0,42,-99.99,,,0.00,Acu-Link.com,2013-07-12 21:48:00,
2013-07-12 15:03:00,66.2,37.0,29.88,NW,315,2.7,-999.0,34,-99.99,,,0.00,Acu-Link.com,2013-07-12 22:03:00,
2013-07-12 15:18:00,64.4,36.2,29.88,West,270,3.6,-999.0,35,-99.99,,,0.00,Acu-Link.com,2013-07-12 22:18:00,
2013-07-12 15:48:00,68.0,35.4,29.88,SW,225,2.0,-999.0,30,-99.99,,,0.00,Acu-Link.com,2013-07-12 22:48:00,
2013-07-12 16:03:00,62.6,36.6,29.87,NNE,22,1.6,-999.0,38,-99.99,,,0.00,Acu-Link.com,2013-07-12 23:03:00,
2013-07-12 16:18:00,68.0,37.0,29.87,West,270,2.0,-999.0,32,-99.99,,,0.00,Acu-Link.com,2013-07-12 23:18:00,
2013-07-12 16:33:00,68.0,37.8,29.87,North,0,2.7,-999.0,33,-99.99,,,0.00,Acu-Link.com,2013-07-12 23:33:00,
2013-07-12 17:19:00,68.0,32.8,29.87,South,180,3.1,-999.0,27,-99.99,,,0.00,Acu-Link.com,2013-07-13 00:19:00,
2013-07-12 17:34:00,68.0,37.0,29.86,SSE,157,2.0,-999.0,32,-99.99,,,0.00,Acu-Link.com,2013-07-13 00:34:00,
2013-07-12 17:49:00,71.6,34.9,29.86,North,0,1.1,-999.0,26,-99.99,,,0.00,Acu-Link.com,2013-07-13 00:49:00,
2013-07-12 18:04:00,71.6,33.9,29.86,West,270,2.0,-999.0,25,-99.99,,,0.00,Acu-Link.com,2013-07-13 01:04:00,
2013-07-12 18:19:00,69.8,34.3,29.86,SSE,157,0.0,-999.0,27,-99.99,,,0.00,Acu-Link.com,2013-07-13 01:19:00,
2013-07-12 18:34:00,66.2,38.5,29.86,West,270,0.0,-999.0,36,-99.99,,,0.00,Acu-Link.com,2013-07-13 01:34:00,
2013-07-12 18:49:00,64.4,38.9,29.86,SSW,202,0.0,-999.0,39,-99.99,,,0.00,Acu-Link.com,2013-07-13 01:49:00,
2013-07-12 19:04:00,64.4,39.6,29.86,SW,225,0.0,-999.0,40,-99.99,,,0.00,Acu-Link.com,2013-07-13 02:04:00,
2013-07-12 19:19:00,68.0,40.0,29.87,NE,45,2.7,-999.0,36,-99.99,,,0.00,Acu-Link.com,2013-07-13 02:19:00,
2013-07-12 19:34:00,66.2,37.0,29.87,SSW,202,0.0,-999.0,34,-99.99,,,0.00,Acu-Link.com,2013-07-13 02:34:00,
2013-07-12 19:49:00,64.4,40.8,29.87,North,0,0.0,-999.0,42,-99.99,,,0.00,Acu-Link.com,2013-07-13 02:49:00,
2013-07-12 20:05:00,62.6,40.4,29.87,ESE,112,0.0,-999.0,44,-99.99,,,0.00,Acu-Link.com,2013-07-13 03:05:00,
2013-07-12 20:20:00,62.6,40.4,29.87,East,90,0.0,-999.0,44,-99.99,,,0.00,Acu-Link.com,2013-07-13 03:20:00,
2013-07-12 20:35:00,60.8,39.3,29.88,NE,45,0.0,-999.0,45,-99.99,,,0.00,Acu-Link.com,2013-07-13 03:35:00,
2013-07-12 20:50:00,59.0,38.8,29.88,NE,45,0.0,-999.0,47,-99.99,,,0.00,Acu-Link.com,2013-07-13 03:50:00,
2013-07-12 21:05:00,59.0,41.4,29.88,NE,45,0.0,-999.0,52,-99.99,,,0.00,Acu-Link.com,2013-07-13 04:05:00,
2013-07-12 21:21:00,57.2,41.2,29.89,NNE,22,0.0,-999.0,55,-99.99,,,0.00,Acu-Link.com,2013-07-13 04:21:00,
2013-07-12 21:36:00,55.4,40.0,29.89,NNE,22,0.0,-999.0,56,-99.99,,,0.00,Acu-Link.com,2013-07-13 04:36:00,
2013-07-12 21:51:00,55.4,40.9,29.89,NNE,22,0.0,-999.0,58,-99.99,,,0.00,Acu-Link.com,2013-07-13 04:51:00,
2013-07-12 22:06:00,55.4,40.9,29.90,NE,45,0.0,-999.0,58,-99.99,,,0.00,Acu-Link.com,2013-07-13 05:06:00,
2013-07-12 22:21:00,55.4,43.0,29.90,NE,45,0.0,-999.0,63,-99.99,,,0.00,Acu-Link.com,2013-07-13 05:21:00,
2013-07-12 22:37:00,53.6,41.7,29.90,NE,45,0.0,-999.0,64,-99.99,,,0.00,Acu-Link.com,2013-07-13 05:37:00,
2013-07-12 22:52:00,53.6,44.1,29.90,South,180,0.0,-999.0,70,-99.99,,,0.00,Acu-Link.com,2013-07-13 05:52:00,
2013-07-12 23:07:00,53.6,43.7,29.91,SE,135,0.0,-999.0,69,-99.99,,,0.00,Acu-Link.com,2013-07-13 06:07:00,
2013-07-12 23:22:00,51.8,43.1,29.91,ENE,67,0.0,-999.0,72,-99.99,,,0.00,Acu-Link.com,2013-07-13 06:22:00,
2013-07-12 23:37:00,51.8,43.8,29.91,ENE,67,0.0,-999.0,74,-99.99,,,0.00,Acu-Link.com,2013-07-13 06:37:00,
2013-07-12 23:52:00,50.0,42.7,29.92,NE,45,0.0,-999.0,76,-99.99,,,0.00,Acu-Link.com,2013-07-13 06:52:00,